Time;durP1;ratioP1;P1;durP2;ratioP2;P2;SDS_P1;SDS_P2;PMS_P1;PMS_P2;Temp;Humidity;BMP_temperature;BMP_pressure;BME280_temperature;BME280_humidity;BME280_pressure;Samples;Min_cycle;Max_cycle;Signal;HPM_P1;HPM_P2
2022/06/19 00:00:21;;;;;;;11.20;5.88;;;;;;;21.38;100.00;101479.34;5123883;27;20063;-75
2022/06/19 00:03:15;;;;;;;5.45;4.07;;;;;;;21.58;100.00;101471.19;5137941;27;20071;-75
2022/06/19 00:06:01;;;;;;;5.60;4.43;;;;;;;21.30;100.00;101470.84;5137621;27;20518;-75
2022/06/19 00:08:48;;;;;;;6.97;4.28;;;;;;;21.31;100.00;101472.59;5124086;27;20027;-76
2022/06/19 00:11:35;;;;;;;4.63;4.20;;;;;;;21.40;100.00;101469.47;5139467;27;20085;-76
2022/06/19 00:14:23;;;;;;;6.32;4.50;;;;;;;20.92;100.00;101476.31;5149298;27;20462;-75
2022/06/19 00:17:09;;;;;;;6.80;4.10;;;;;;;21.03;100.00;101468.69;5132768;27;20083;-75
2022/06/19 00:19:55;;;;;;;12.70;4.40;;;;;;;21.11;100.00;101478.06;5141408;27;20045;-75
2022/06/19 00:22:40;;;;;;;6.43;4.22;;;;;;;21.40;100.00;101482.81;5153298;27;20023;-75
2022/06/19 00:25:26;;;;;;;7.57;4.00;;;;;;;20.93;100.00;101478.06;5156514;27;20015;-75
2022/06/19 00:28:12;;;;;;;6.22;4.45;;;;;;;20.78;100.00;101476.09;5157142;27;20111;-75
2022/06/19 00:30:58;;;;;;;8.70;4.35;;;;;;;20.76;100.00;101480.63;5158481;27;20015;-75
2022/06/19 00:33:43;;;;;;;10.02;3.97;;;;;;;20.94;100.00;101479.81;5157870;27;20036;-75
2022/06/19 00:36:29;;;;;;;5.20;4.03;;;;;;;21.04;100.00;101486.41;5157439;27;20055;-75
2022/06/19 00:39:17;;;;;;;7.07;4.40;;;;;;;21.29;100.00;101476.25;5155521;27;20090;-75
2022/06/19 00:42:03;;;;;;;5.40;4.18;;;;;;;20.93;100.00;101486.06;5143189;27;20030;-75
2022/06/19 00:44:48;;;;;;;7.80;4.75;;;;;;;20.84;100.00;101490.00;5153830;27;20015;-76
2022/06/19 00:47:38;;;;;;;5.38;4.40;;;;;;;20.93;100.00;101486.91;5148618;27;20034;-75
2022/06/19 00:50:28;;;;;;;9.50;4.60;;;;;;;20.71;100.00;101490.63;5138082;27;20023;-75
2022/06/19 00:53:27;;;;;;;5.85;4.38;;;;;;;20.82;100.00;101493.66;5139520;27;20027;-75
2022/06/19 00:56:20;;;;;;;7.55;4.25;;;;;;;20.36;100.00;101488.72;5138837;27;20091;-76
2022/06/19 00:59:07;;;;;;;6.47;4.50;;;;;;;20.69;100.00;101484.53;5139131;27;20054;-74
2022/06/19 01:01:53;;;;;;;6.82;4.70;;;;;;;20.80;100.00;101495.53;5123414;27;20019;-76
2022/06/19 01:04:44;;;;;;;6.68;4.35;;;;;;;20.59;100.00;101485.88;5122539;27;20091;-75
2022/06/19 01:07:31;;;;;;;5.30;4.30;;;;;;;20.32;100.00;101489.78;5139326;27;20350;-76
2022/06/19 01:10:17;;;;;;;6.72;4.40;;;;;;;20.10;100.00;101479.28;5142229;27;20015;-75
2022/06/19 01:13:03;;;;;;;6.18;4.25;;;;;;;20.24;100.00;101487.50;5145013;27;20034;-76
2022/06/19 01:15:50;;;;;;;5.47;4.50;;;;;;;20.38;100.00;101489.53;5134322;27;20031;-76
2022/06/19 01:18:38;;;;;;;10.63;4.32;;;;;;;20.33;100.00;101491.53;5140977;27;20023;-75
2022/06/19 01:21:52;;;;;;;8.75;4.25;;;;;;;20.17;100.00;101493.16;5135153;27;20027;-76
2022/06/19 01:24:55;;;;;;;5.25;4.63;;;;;;;20.48;100.00;101502.34;5151235;27;20050;-74
2022/06/19 01:30:54;;;;;;;6.18;5.15;;;;;;;20.03;100.00;101498.19;5151242;27;20425;-76
2022/06/19 01:33:45;;;;;;;7.82;5.57;;;;;;;19.88;100.00;101498.84;5154349;27;20030;-75
2022/06/19 01:36:32;;;;;;;7.60;5.53;;;;;;;19.86;100.00;101498.06;5154531;27;20034;-75
2022/06/19 01:39:19;;;;;;;8.52;5.38;;;;;;;20.21;100.00;101494.75;5148756;27;20019;-76
2022/06/19 01:42:05;;;;;;;6.95;5.18;;;;;;;20.51;100.00;101504.88;5133766;27;20087;-75
2022/06/19 01:44:53;;;;;;;7.25;5.55;;;;;;;20.61;100.00;101505.34;5139793;27;20038;-76
2022/06/19 01:47:42;;;;;;;7.55;5.35;;;;;;;20.63;100.00;101496.34;5141147;27;20024;-76
2022/06/19 01:50:31;;;;;;;7.30;4.88;;;;;;;20.71;100.00;101504.81;5138963;27;20329;-76
2022/06/19 01:53:22;;;;;;;9.10;5.32;;;;;;;20.32;100.00;101503.97;5137461;27;20039;-74
2022/06/19 01:56:10;;;;;;;10.07;5.15;;;;;;;20.04;100.00;101500.78;5136072;27;20363;-78
2022/06/19 01:59:03;;;;;;;6.07;4.85;;;;;;;20.18;100.00;101500.22;5144740;27;20462;-75
2022/06/19 02:01:53;;;;;;;8.00;5.18;;;;;;;20.03;100.00;101498.19;5120112;27;20034;-76
2022/06/19 02:04:40;;;;;;;6.82;5.07;;;;;;;20.17;100.00;101506.47;5135491;27;20030;-76
2022/06/19 02:07:28;;;;;;;6.22;4.95;;;;;;;20.43;100.00;101508.81;5136056;27;20019;-76
2022/06/19 02:10:14;;;;;;;8.30;5.00;;;;;;;20.33;100.00;101508.38;5122015;27;20450;-75
2022/06/19 02:13:01;;;;;;;8.43;5.00;;;;;;;20.00;100.00;101508.94;5120946;27;20414;-74
2022/06/19 02:15:49;;;;;;;7.97;5.07;;;;;;;20.39;100.00;101509.88;5136910;27;20444;-75
2022/06/19 02:18:38;;;;;;;6.82;5.10;;;;;;;20.18;100.00;101514.41;5135333;27;20029;-76
2022/06/19 02:21:42;;;;;;;7.25;4.97;;;;;;;20.27;100.00;101510.44;5136585;27;20023;-77
2022/06/19 02:24:28;;;;;;;5.53;4.78;;;;;;;19.87;100.00;101516.63;5140927;27;20023;-76
2022/06/19 02:27:14;;;;;;;7.20;5.13;;;;;;;20.13;100.00;101515.53;5137658;27;20482;-76
2022/06/19 02:30:02;;;;;;;7.45;5.28;;;;;;;19.67;100.00;101521.91;5120785;27;20031;-75
2022/06/19 02:32:51;;;;;;;7.57;5.68;;;;;;;19.63;100.00;101522.97;5119549;27;20027;-75
2022/06/19 02:35:36;;;;;;;10.00;6.95;;;;;;;19.48;100.00;101518.28;5136491;27;20020;-75
2022/06/19 02:38:22;;;;;;;8.70;6.13;;;;;;;19.78;100.00;101518.78;5119003;28;20015;-75
2022/06/19 02:41:24;;;;;;;13.10;5.85;;;;;;;19.66;100.00;101521.97;5121017;28;20035;-76
2022/06/19 02:44:10;;;;;;;13.32;5.55;;;;;;;19.56;100.00;101526.81;5135188;28;20029;-76
2022/06/19 02:46:56;;;;;;;7.78;5.82;;;;;;;19.43;100.00;101525.59;5135114;28;20034;-76
2022/06/19 02:49:42;;;;;;;8.50;5.00;;;;;;;19.34;100.00;101531.28;5134840;28;20458;-75
2022/06/19 02:52:28;;;;;;;6.55;5.50;;;;;;;19.87;100.00;101527.25;5135700;28;20034;-74
2022/06/19 02:55:14;;;;;;;8.15;5.03;;;;;;;19.73;100.00;101523.47;5134919;28;20037;-75
2022/06/19 02:58:00;;;;;;;8.82;6.00;;;;;;;19.83;100.00;101522.13;5134981;28;20102;-75
2022/06/19 03:00:51;;;;;;;8.30;5.57;;;;;;;19.64;100.00;101523.84;5136674;27;20035;-75
2022/06/19 03:03:36;;;;;;;7.55;5.28;;;;;;;19.59;100.00;101528.47;5139012;27;20026;-76
2022/06/19 03:06:22;;;;;;;8.68;5.18;;;;;;;19.80;100.00;101525.78;5139242;27;20025;-76
2022/06/19 03:09:08;;;;;;;10.43;5.80;;;;;;;19.98;100.00;101529.44;5139066;27;20034;-71
2022/06/19 03:11:54;;;;;;;8.05;5.97;;;;;;;20.10;100.00;101521.84;5122259;27;20027;-73
2022/06/19 03:14:40;;;;;;;12.63;5.65;;;;;;;20.04;100.00;101531.81;5138115;27;20023;-73
2022/06/19 03:17:26;;;;;;;8.32;5.65;;;;;;;19.47;100.00;101527.19;5137812;27;20468;-72
2022/06/19 03:20:17;;;;;;;9.40;5.40;;;;;;;19.01;100.00;101536.09;5138914;27;20467;-72
2022/06/19 03:23:02;;;;;;;8.75;5.60;;;;;;;19.02;100.00;101534.31;5138829;27;20110;-73
2022/06/19 03:25:48;;;;;;;6.82;5.20;;;;;;;18.99;100.00;101530.00;5122506;27;20046;-73
2022/06/19 03:28:34;;;;;;;9.82;5.97;;;;;;;19.50;100.00;101532.38;5138295;27;20020;-73
2022/06/19 03:31:23;;;;;;;9.85;5.53;;;;;;;19.75;100.00;101532.22;5138392;27;20336;-73
2022/06/19 03:34:09;;;;;;;8.25;6.10;;;;;;;19.55;100.00;101530.41;5138009;27;20027;-73
2022/06/19 03:36:55;;;;;;;9.02;6.28;;;;;;;19.22;100.00;101535.25;5122912;27;20022;-73
2022/06/19 03:39:41;;;;;;;9.02;5.65;;;;;;;19.06;100.00;101525.31;5138423;27;20042;-72
2022/06/19 03:42:27;;;;;;;8.35;5.93;;;;;;;19.82;100.00;101534.56;5121813;27;20424;-73
2022/06/19 03:45:13;;;;;;;9.73;5.97;;;;;;;19.84;100.00;101527.38;5137637;27;20083;-72
2022/06/19 03:47:59;;;;;;;9.88;5.90;;;;;;;18.86;100.00;101528.72;5137597;27;20037;-73
2022/06/19 03:50:45;;;;;;;9.75;6.10;;;;;;;19.21;100.00;101532.69;5137981;27;20054;-72
2022/06/19 03:53:30;;;;;;;8.23;5.70;;;;;;;19.56;100.00;101536.59;5137945;27;20038;-73
2022/06/19 03:56:22;;;;;;;10.57;5.90;;;;;;;19.61;100.00;101535.44;5121833;27;20022;-71
2022/06/19 03:59:09;;;;;;;7.82;6.28;;;;;;;19.60;100.00;101536.38;5137862;27;20027;-73
2022/06/19 04:01:55;;;;;;;9.20;5.80;;;;;;;19.49;100.00;101540.44;5137638;27;20087;-73
2022/06/19 04:04:42;;;;;;;8.88;6.20;;;;;;;19.81;100.00;101547.94;5138015;27;20023;-73
2022/06/19 04:07:27;;;;;;;9.38;5.97;;;;;;;20.12;100.00;101546.56;5122311;27;20030;-73
2022/06/19 04:10:15;;;;;;;10.48;6.07;;;;;;;19.77;100.00;101549.84;5137425;27;20109;-74
2022/06/19 04:13:02;;;;;;;8.35;5.88;;;;;;;20.10;100.00;101545.78;5136929;27;20078;-74
2022/06/19 04:15:48;;;;;;;10.00;6.32;;;;;;;20.16;100.00;101552.63;5137392;27;20038;-72
2022/06/19 04:18:34;;;;;;;14.60;6.20;;;;;;;20.12;100.00;101551.91;5136726;27;20098;-73
2022/06/19 04:21:25;;;;;;;12.15;6.38;;;;;;;20.08;100.00;101550.28;5137167;27;20027;-72
2022/06/19 04:24:17;;;;;;;9.05;6.28;;;;;;;19.96;100.00;101557.91;5121382;27;20037;-72
2022/06/19 04:27:05;;;;;;;9.27;6.30;;;;;;;20.02;100.00;101550.53;5137085;27;20081;-73
2022/06/19 04:29:51;;;;;;;8.02;6.30;;;;;;;19.36;100.00;101553.34;5135631;27;20421;-73
2022/06/19 04:32:36;;;;;;;8.10;6.05;;;;;;;20.09;100.00;101551.16;5137113;27;20026;-75
2022/06/19 04:35:22;;;;;;;9.02;6.68;;;;;;;20.12;100.00;101553.69;5137281;27;20347;-73
2022/06/19 04:38:08;;;;;;;9.02;6.38;;;;;;;19.46;100.00;101545.84;5137750;27;20356;-73
2022/06/19 04:40:55;;;;;;;8.50;6.10;;;;;;;19.89;100.00;101553.78;5137206;27;20336;-72
2022/06/19 04:43:41;;;;;;;9.38;6.25;;;;;;;20.20;100.00;101552.44;5137227;27;20058;-73
2022/06/19 04:46:27;;;;;;;6.90;6.20;;;;;;;20.23;100.00;101548.75;5136311;27;20079;-73
2022/06/19 04:49:14;;;;;;;9.13;6.40;;;;;;;20.71;100.00;101554.56;5137000;27;20096;-73
2022/06/19 04:52:00;;;;;;;5.95;5.20;;;;;;;20.90;100.00;101545.63;5136344;27;20023;-73
2022/06/19 04:54:46;;;;;;;9.55;6.55;;;;;;;20.77;100.00;101544.47;5137047;27;20031;-73
2022/06/19 04:57:32;;;;;;;11.30;6.70;;;;;;;20.63;100.00;101541.59;5136356;27;20107;-72
2022/06/19 05:00:20;;;;;;;10.40;6.60;;;;;;;20.23;100.00;101549.66;5137456;27;20023;-73
2022/06/19 05:03:05;;;;;;;8.80;6.35;;;;;;;20.53;100.00;101552.75;5136474;27;20023;-72
2022/06/19 05:05:53;;;;;;;8.40;6.60;;;;;;;20.52;100.00;101551.88;5136688;27;20451;-74
2022/06/19 05:08:39;;;;;;;9.48;6.32;;;;;;;20.89;100.00;101556.38;5135417;27;20026;-73
2022/06/19 05:11:27;;;;;;;8.95;6.38;;;;;;;20.25;100.00;101557.56;5136227;27;20026;-73
2022/06/19 05:14:13;;;;;;;8.30;6.20;;;;;;;21.04;100.00;101567.22;5136119;27;20038;-74
2022/06/19 05:16:59;;;;;;;9.88;6.43;;;;;;;21.07;100.00;101564.41;5136034;27;20106;-73
2022/06/19 05:19:45;;;;;;;7.63;6.15;;;;;;;21.05;100.00;101555.59;5136438;27;20029;-73
2022/06/19 05:22:31;;;;;;;8.00;6.22;;;;;;;21.13;100.00;101563.25;5136215;27;20049;-72
2022/06/19 05:25:16;;;;;;;8.77;6.68;;;;;;;21.19;100.00;101560.28;5141658;27;20447;-73
2022/06/19 05:28:03;;;;;;;9.27;6.55;;;;;;;21.02;100.00;101563.75;5140193;27;20047;-73
2022/06/19 05:30:49;;;;;;;9.18;7.05;;;;;;;21.03;100.00;101564.63;5139604;27;20467;-73
2022/06/19 05:33:35;;;;;;;7.68;6.40;;;;;;;21.10;100.00;101564.25;5122258;27;20030;-72
2022/06/19 05:36:22;;;;;;;10.25;6.78;;;;;;;21.25;100.00;101562.66;5136696;27;20027;-73
2022/06/19 05:39:10;;;;;;;8.70;6.35;;;;;;;21.18;100.00;101556.75;5138881;27;20027;-72
2022/06/19 05:41:57;;;;;;;9.50;6.72;;;;;;;21.69;100.00;101551.56;5138819;27;20065;-73
2022/06/19 05:44:45;;;;;;;8.57;6.60;;;;;;;21.06;100.00;101554.66;5123686;27;20023;-72
2022/06/19 05:47:31;;;;;;;7.85;6.40;;;;;;;21.59;100.00;101552.97;5121511;27;20031;-73
2022/06/19 05:50:17;;;;;;;8.13;6.35;;;;;;;21.62;100.00;101555.44;5122337;27;20371;-73
2022/06/19 05:53:03;;;;;;;9.68;6.63;;;;;;;21.61;100.00;101559.06;5136063;27;20046;-73
2022/06/19 05:55:49;;;;;;;8.15;6.25;;;;;;;21.97;100.00;101556.38;5136730;27;20031;-72
2022/06/19 05:58:35;;;;;;;8.82;6.07;;;;;;;22.17;100.00;101548.22;5136669;27;20015;-72
2022/06/19 06:01:22;;;;;;;9.85;5.93;;;;;;;22.43;100.00;101545.06;5135589;27;20346;-73
2022/06/19 06:04:08;;;;;;;10.90;6.53;;;;;;;22.43;100.00;101548.56;5136075;27;20016;-72
2022/06/19 06:06:54;;;;;;;6.72;5.72;;;;;;;22.30;100.00;101546.66;5136482;27;20461;-72
2022/06/19 06:09:40;;;;;;;10.60;6.15;;;;;;;22.57;100.00;101535.38;5136455;27;20042;-73
2022/06/19 06:12:25;;;;;;;10.10;6.30;;;;;;;22.61;100.00;101547.63;5136908;27;20019;-72
2022/06/19 06:15:11;;;;;;;7.45;6.65;;;;;;;22.51;100.00;101540.19;5141255;27;20090;-72
2022/06/19 06:18:02;;;;;;;8.68;6.35;;;;;;;22.50;100.00;101544.66;5142024;27;20023;-73
2022/06/19 06:21:05;;;;;;;6.50;5.90;;;;;;;22.60;100.00;101539.69;5128111;27;20030;-73
2022/06/19 06:23:52;;;;;;;9.13;5.85;;;;;;;22.60;100.00;101543.25;5142845;27;20035;-73
2022/06/19 06:26:39;;;;;;;7.93;5.85;;;;;;;22.66;100.00;101550.03;5143087;27;20039;-73
2022/06/19 06:29:25;;;;;;;7.57;5.82;;;;;;;22.81;100.00;101544.75;5141229;27;20055;-72
2022/06/19 06:32:11;;;;;;;7.47;5.07;;;;;;;22.85;100.00;101546.28;5128466;28;20172;-73
2022/06/19 06:34:56;;;;;;;6.85;5.38;;;;;;;23.11;100.00;101545.69;5143360;27;20027;-73
2022/06/19 06:37:42;;;;;;;7.30;5.57;;;;;;;23.50;100.00;101547.13;5147373;27;20026;-73
2022/06/19 06:40:28;;;;;;;13.05;5.82;;;;;;;23.68;100.00;101548.72;5147241;27;20058;-73
2022/06/19 06:43:14;;;;;;;9.88;5.00;;;;;;;24.02;100.00;101551.16;5147290;28;20027;-73
2022/06/19 06:46:08;;;;;;;6.88;4.60;;;;;;;24.13;100.00;101556.72;5147139;28;20031;-72
2022/06/19 06:48:59;;;;;;;6.60;4.00;;;;;;;24.16;100.00;101551.19;5144815;28;20044;-73
2022/06/19 06:51:45;;;;;;;7.15;4.30;;;;;;;23.84;100.00;101549.53;5139268;28;20359;-73
2022/06/19 06:54:31;;;;;;;7.15;4.00;;;;;;;24.31;100.00;101548.44;5135516;28;20035;-73
2022/06/19 06:57:17;;;;;;;6.32;4.70;;;;;;;24.78;100.00;101548.19;5119215;28;20088;-73
2022/06/19 07:00:04;;;;;;;6.00;4.00;;;;;;;24.53;100.00;101548.84;5134791;28;20106;-73
2022/06/19 07:02:50;;;;;;;4.13;3.72;;;;;;;24.49;100.00;101543.75;5134511;28;20094;-73
2022/06/19 07:05:36;;;;;;;8.00;4.15;;;;;;;24.52;100.00;101543.59;5135410;28;20024;-72
2022/06/19 07:08:22;;;;;;;5.07;4.20;;;;;;;24.92;100.00;101550.88;5134442;28;20054;-73
2022/06/19 07:11:16;;;;;;;5.60;3.88;;;;;;;25.01;100.00;101552.97;5134173;28;20034;-73
2022/06/19 07:14:05;;;;;;;5.50;3.65;;;;;;;25.22;100.00;101554.28;5119236;28;20102;-73
2022/06/19 07:16:51;;;;;;;5.47;3.65;;;;;;;25.54;97.67;101553.06;5134729;28;20023;-73
2022/06/19 07:19:37;;;;;;;3.90;3.25;;;;;;;25.53;91.41;101548.66;5121136;28;20031;-73
2022/06/19 07:22:23;;;;;;;2.70;2.35;;;;;;;25.53;71.70;101554.91;5118839;28;20019;-72
2022/06/19 07:25:20;;;;;;;2.60;2.30;;;;;;;26.14;76.31;101546.28;5134207;28;20019;-73
2022/06/19 07:28:06;;;;;;;4.38;2.60;;;;;;;26.51;72.89;101548.13;5134078;28;20043;-74
2022/06/19 07:30:52;;;;;;;3.25;2.85;;;;;;;25.94;73.49;101546.78;5134513;28;20076;-73
2022/06/19 07:33:39;;;;;;;6.82;3.00;;;;;;;26.33;75.45;101552.94;5134775;28;20084;-73
2022/06/19 07:36:25;;;;;;;3.63;2.63;;;;;;;26.40;74.05;101542.66;5134904;28;20026;-74
2022/06/19 07:39:11;;;;;;;4.75;2.58;;;;;;;27.03;69.42;101536.25;5132595;28;20037;-72
2022/06/19 07:41:58;;;;;;;3.88;2.75;;;;;;;26.48;71.06;101537.59;5118943;28;20129;-74
2022/06/19 07:44:44;;;;;;;4.72;2.92;;;;;;;27.02;73.85;101544.44;5134440;28;20103;-72
2022/06/19 07:50:34;;;;;;;4.30;2.70;;;;;;;27.63;61.44;101535.41;5138467;27;20105;-74
2022/06/19 07:53:20;;;;;;;3.53;2.60;;;;;;;28.16;60.39;101537.59;5138816;27;20034;-74
2022/06/19 07:56:06;;;;;;;2.95;2.42;;;;;;;27.00;59.01;101533.78;5136632;27;20027;-72
2022/06/19 07:58:51;;;;;;;4.50;2.60;;;;;;;27.26;59.41;101534.59;5137792;27;20015;-74
2022/06/19 08:01:37;;;;;;;3.85;2.35;;;;;;;27.84;55.05;101534.66;5137842;27;20117;-74
2022/06/19 08:04:23;;;;;;;5.00;3.10;;;;;;;27.93;56.18;101525.91;5137642;27;20502;-73
2022/06/19 08:07:12;;;;;;;4.95;2.83;;;;;;;28.24;54.41;101522.53;5138045;27;20066;-75
2022/06/19 08:09:58;;;;;;;3.72;2.58;;;;;;;28.09;57.27;101526.44;5121153;27;20027;-74
2022/06/19 08:12:44;;;;;;;3.25;2.42;;;;;;;28.30;54.03;101511.28;5121422;27;20356;-73
2022/06/19 08:15:30;;;;;;;6.53;2.55;;;;;;;28.28;60.30;101520.47;5136488;27;20027;-74
2022/06/19 08:18:16;;;;;;;6.43;2.60;;;;;;;28.43;54.66;101522.84;5107741;27;20023;-73
2022/06/19 08:21:02;;;;;;;4.35;2.60;;;;;;;28.81;54.61;101514.41;5137314;27;20106;-73
2022/06/19 08:23:48;;;;;;;10.30;2.97;;;;;;;28.98;54.36;101525.56;5137274;27;20376;-74
2022/06/19 08:26:35;;;;;;;4.72;2.70;;;;;;;28.51;59.58;101520.41;5120577;27;20070;-74
2022/06/19 08:29:20;;;;;;;11.60;5.07;;;;;;;29.02;58.62;101516.25;5137826;27;20100;-74
2022/06/19 08:32:06;;;;;;;3.58;3.22;;;;;;;29.04;56.84;101510.72;5136933;27;20076;-74
2022/06/19 08:34:52;;;;;;;3.88;3.13;;;;;;;29.31;60.13;101520.13;5122045;27;20073;-74
2022/06/19 08:37:40;;;;;;;5.50;3.38;;;;;;;29.56;59.23;101517.09;5137601;27;20015;-75
2022/06/19 08:40:41;;;;;;;4.18;2.80;;;;;;;29.91;57.58;101512.31;5136984;27;20463;-75
2022/06/19 08:43:33;;;;;;;4.97;3.95;;;;;;;29.62;56.97;101521.16;5136030;27;20114;-73
2022/06/19 08:46:43;;;;;;;3.65;3.00;;;;;;;29.48;60.04;101516.88;5136757;27;20027;-76
2022/06/19 08:49:38;;;;;;;4.60;3.03;;;;;;;29.49;63.06;101502.38;5137140;27;20088;-72
2022/06/19 08:52:45;;;;;;;4.63;2.95;;;;;;;29.69;57.55;101498.06;5122882;27;20023;-72
2022/06/19 08:56:02;;;;;;;4.45;2.90;;;;;;;29.12;58.04;101497.44;5137179;27;20019;-72
2022/06/19 08:58:48;;;;;;;5.47;3.03;;;;;;;29.45;56.06;101502.78;5136429;27;20440;-72
2022/06/19 09:02:04;;;;;;;3.38;2.80;;;;;;;29.96;53.93;101496.53;5136080;27;20031;-73
2022/06/19 09:08:30;;;;;;;3.90;3.00;;;;;;;30.08;52.13;101484.69;5124157;27;20023;-71
2022/06/19 09:11:37;;;;;;;4.43;2.55;;;;;;;29.46;51.74;101482.88;5136458;27;20034;-73
2022/06/19 09:14:34;;;;;;;3.47;2.60;;;;;;;29.06;51.08;101477.25;5136398;27;20035;-71
2022/06/19 09:17:29;;;;;;;5.43;2.45;;;;;;;29.01;51.67;101484.00;5135335;27;20328;-71
2022/06/19 09:20:49;;;;;;;8.43;7.57;;;;;;;29.29;46.66;101484.28;5136250;27;20038;-72
2022/06/19 09:23:44;;;;;;;4.95;3.33;;;;;;;29.16;46.35;101480.88;5136423;27;20424;-72
2022/06/19 09:27:03;;;;;;;2.90;2.60;;;;;;;29.05;47.10;101483.59;5120222;27;20077;-72
2022/06/19 09:29:52;;;;;;;5.20;2.70;;;;;;;29.06;52.36;101468.28;5095101;27;20158;-73
2022/06/19 09:32:46;;;;;;;6.93;3.50;;;;;;;30.30;53.29;101471.00;5135887;27;20068;-74
2022/06/19 09:35:42;;;;;;;7.35;3.10;;;;;;;30.67;48.14;101474.03;5119865;27;20208;-72
2022/06/19 09:38:41;;;;;;;4.78;2.88;;;;;;;29.64;49.62;101466.00;5135691;27;20447;-73
2022/06/19 09:41:47;;;;;;;3.92;3.05;;;;;;;29.75;49.62;101467.78;5136801;27;20022;-74
2022/06/19 09:44:39;;;;;;;5.43;2.85;;;;;;;29.87;50.91;101456.81;5119414;27;20083;-74
2022/06/19 09:47:47;;;;;;;3.85;3.05;;;;;;;30.09;50.81;101455.81;5120080;27;20034;-73
2022/06/19 09:50:39;;;;;;;4.25;3.05;;;;;;;29.93;49.41;101450.00;5135545;27;20023;-74
2022/06/19 09:53:41;;;;;;;6.95;3.25;;;;;;;29.86;51.86;101456.94;5135582;27;20023;-74
2022/06/19 09:56:36;;;;;;;5.13;2.90;;;;;;;30.09;49.53;101456.66;5134402;27;20050;-75
2022/06/19 09:59:37;;;;;;;5.20;4.28;;;;;;;30.19;51.19;101452.19;5134367;27;20023;-74
2022/06/19 10:02:56;;;;;;;5.05;3.38;;;;;;;30.10;49.62;101452.94;5119792;27;20023;-74
2022/06/19 10:05:53;;;;;;;5.13;3.10;;;;;;;30.16;50.17;101447.06;5135131;27;20458;-72
2022/06/19 10:08:49;;;;;;;3.15;2.83;;;;;;;30.10;50.77;101444.84;5134886;27;20023;-74
2022/06/19 10:11:39;;;;;;;3.67;2.92;;;;;;;30.65;49.77;101448.94;5134197;27;20038;-74
2022/06/19 10:14:42;;;;;;;3.25;2.95;;;;;;;29.52;50.18;101450.81;5118720;27;20084;-74
2022/06/19 10:17:39;;;;;;;3.90;3.20;;;;;;;29.81;52.12;101432.16;5135435;27;20056;-73
2022/06/19 10:20:37;;;;;;;3.38;2.78;;;;;;;29.78;51.53;101445.94;5134967;27;20030;-73
2022/06/19 10:23:51;;;;;;;3.58;2.90;;;;;;;29.72;52.39;101439.19;5120019;27;20019;-74
2022/06/19 10:26:50;;;;;;;6.25;3.25;;;;;;;29.58;49.55;101428.69;5134216;27;20043;-73
2022/06/19 10:29:55;;;;;;;8.45;6.45;;;;;;;30.04;49.48;101431.00;5136117;27;20062;-74
2022/06/19 10:32:47;;;;;;;3.90;2.90;;;;;;;29.18;52.01;101418.69;5134677;27;20023;-73
2022/06/19 10:35:58;;;;;;;5.60;3.20;;;;;;;29.63;52.94;101423.78;5134279;27;20031;-73
2022/06/19 10:39:08;;;;;;;4.90;3.85;;;;;;;29.33;53.53;101414.69;5134756;27;20079;-72
2022/06/19 10:42:29;;;;;;;5.47;3.50;;;;;;;30.13;52.74;101422.94;5120591;28;20023;-73
2022/06/19 10:45:34;;;;;;;4.18;2.83;;;;;;;29.27;47.50;101424.16;5093803;28;20042;-72
2022/06/19 10:48:41;;;;;;;5.00;2.88;;;;;;;28.74;50.02;101413.38;5133675;28;20059;-73
2022/06/19 10:52:03;;;;;;;4.95;3.20;;;;;;;29.24;51.81;101415.44;5133167;28;20023;-73
2022/06/19 10:54:49;;;;;;;12.82;10.40;;;;;;;29.49;49.32;101409.72;5134555;28;20050;-73
2022/06/19 10:57:47;;;;;;;6.75;4.45;;;;;;;29.48;49.57;101406.13;5117689;28;20048;-74
2022/06/19 11:00:35;;;;;;;6.70;2.85;;;;;;;30.04;47.39;101403.97;5118406;28;20027;-72
2022/06/19 11:07:16;;;;;;;5.72;3.00;;;;;;;30.24;46.51;101406.69;5135613;28;20038;-74
2022/06/19 11:10:15;;;;;;;3.40;2.70;;;;;;;30.28;45.78;101405.41;5082407;28;20049;-75
2022/06/19 11:13:03;;;;;;;5.70;2.70;;;;;;;29.95;46.17;101411.06;5134191;28;20022;-73
2022/06/19 11:16:04;;;;;;;2.85;2.50;;;;;;;30.03;47.17;101405.84;5134373;28;20023;-73
2022/06/19 11:18:53;;;;;;;5.47;2.90;;;;;;;30.47;46.69;101407.31;5119936;28;20106;-74
2022/06/19 11:21:40;;;;;;;2.97;2.40;;;;;;;30.01;47.01;101396.97;5138410;27;20023;-72
2022/06/19 11:24:32;;;;;;;3.90;2.83;;;;;;;30.68;45.99;101405.41;5140653;27;20038;-74
2022/06/19 11:27:21;;;;;;;2.58;2.38;;;;;;;30.78;42.69;101406.31;5140334;27;20058;-73
2022/06/19 11:30:07;;;;;;;2.47;2.28;;;;;;;30.59;41.20;101404.41;5140529;27;20534;-75
2022/06/19 11:32:53;;;;;;;5.85;2.50;;;;;;;30.17;45.56;101405.50;5155789;27;20015;-73
2022/06/19 11:35:45;;;;;;;6.30;2.50;;;;;;;30.57;45.01;101392.84;5143231;27;20056;-74
2022/06/19 11:38:38;;;;;;;7.45;6.05;;;;;;;31.09;44.19;101397.94;5159762;27;20030;-73
2022/06/19 11:41:24;;;;;;;5.13;2.70;;;;;;;31.12;43.51;101392.25;5159292;27;20332;-73
2022/06/19 11:44:15;;;;;;;2.65;2.38;;;;;;;30.60;42.77;101391.69;5157467;27;20023;-73
2022/06/19 11:47:01;;;;;;;4.72;2.47;;;;;;;30.66;41.75;101396.56;5159187;27;20023;-73
2022/06/19 11:49:47;;;;;;;6.13;2.63;;;;;;;31.11;41.42;101398.66;5161005;27;20022;-73
2022/06/19 11:52:33;;;;;;;6.35;2.40;;;;;;;30.82;40.36;101392.34;5137987;27;20084;-73
2022/06/19 11:55:42;;;;;;;6.68;2.20;;;;;;;30.87;41.23;101383.81;5137438;27;20030;-72
2022/06/19 11:58:40;;;;;;;2.85;2.20;;;;;;;30.78;41.64;101382.81;5138095;27;20094;-72
2022/06/19 12:01:41;;;;;;;4.68;2.40;;;;;;;30.73;41.55;101376.97;5138816;27;20019;-73
2022/06/19 12:04:38;;;;;;;3.33;2.30;;;;;;;30.59;41.95;101377.34;5144347;27;20019;-73
2022/06/19 12:07:28;;;;;;;3.85;2.55;;;;;;;31.38;40.50;101377.16;5143805;27;20019;-72
2022/06/19 12:10:13;;;;;;;4.20;2.50;;;;;;;31.50;39.87;101358.88;5158371;27;20083;-72
2022/06/19 12:13:02;;;;;;;6.13;2.40;;;;;;;30.47;39.86;101364.91;5158621;27;20031;-73
2022/06/19 12:16:02;;;;;;;3.00;2.05;;;;;;;30.51;39.30;101358.25;5158941;27;20027;-72
2022/06/19 12:18:51;;;;;;;3.55;2.13;;;;;;;30.69;39.04;101362.00;5157871;27;20074;-72
2022/06/19 12:21:47;;;;;;;2.50;2.30;;;;;;;30.73;40.54;101359.84;5142554;27;20030;-78
2022/06/19 12:24:46;;;;;;;3.40;2.10;;;;;;;30.86;39.13;101361.31;5157556;27;20090;-79
2022/06/19 12:27:38;;;;;;;4.90;2.80;;;;;;;31.24;39.92;101355.09;5124415;27;20043;-79
2022/06/19 12:30:33;;;;;;;2.85;2.40;;;;;;;30.95;39.16;101355.03;5122198;27;20027;-78
2022/06/19 12:33:27;;;;;;;10.07;8.57;;;;;;;30.94;40.01;101350.63;5121483;27;20023;-78
2022/06/19 12:36:16;;;;;;;3.70;2.60;;;;;;;31.13;38.98;101342.50;5121948;27;20431;-78
2022/06/19 12:39:05;;;;;;;5.47;2.53;;;;;;;31.29;39.13;101342.81;5137160;27;20027;-78
2022/06/19 12:42:09;;;;;;;4.88;2.70;;;;;;;31.29;39.15;101339.25;5137683;27;20083;-78
2022/06/19 12:45:14;;;;;;;4.60;2.42;;;;;;;31.75;39.37;101343.88;5136927;27;20063;-79
2022/06/19 12:48:24;;;;;;;4.40;2.28;;;;;;;31.10;39.80;101337.38;5137821;27;20028;-78
2022/06/19 12:51:28;;;;;;;2.70;2.30;;;;;;;31.25;39.06;101330.56;5136026;27;20042;-79
2022/06/19 12:54:41;;;;;;;4.72;2.20;;;;;;;31.56;37.91;101328.53;5137941;27;20031;-78
2022/06/19 12:58:03;;;;;;;5.28;2.20;;;;;;;31.25;37.63;101319.75;5120648;27;20096;-80
2022/06/19 13:01:09;;;;;;;2.53;2.00;;;;;;;31.28;36.96;101318.59;5121562;27;20023;-79
2022/06/19 13:04:12;;;;;;;2.80;2.05;;;;;;;30.61;36.27;101318.50;5137056;27;20355;-80
2022/06/19 13:07:34;;;;;;;4.97;1.92;;;;;;;31.29;37.36;101317.59;5137387;27;20043;-80
2022/06/19 13:10:41;;;;;;;2.25;2.05;;;;;;;30.89;37.43;101314.16;5136915;27;20455;-79
2022/06/19 13:13:53;;;;;;;3.70;2.50;;;;;;;31.17;37.49;101306.03;5121619;27;20344;-80
2022/06/19 13:17:03;;;;;;;5.03;2.22;;;;;;;30.90;37.83;101300.47;5136622;27;20039;-79
2022/06/19 13:20:09;;;;;;;3.80;2.10;;;;;;;31.05;38.72;101296.34;5121372;27;20027;-78
2022/06/19 13:23:16;;;;;;;4.38;2.20;;;;;;;30.47;39.13;101307.25;5133966;27;20106;-80